sensor_id;sensor_type;location;lat;lon;timestamp;P1;durP1;ratioP1;P2;durP2;ratioP2
81544;SDS011;70990;50.618;7.346;2023-10-08T00:01:33;8.20;;;2.38;;
81544;SDS011;70990;50.618;7.346;2023-10-08T00:04:00;7.28;;;1.70;;
81544;SDS011;70990;50.618;7.346;2023-10-08T00:06:27;7.53;;;2.10;;
81544;SDS011;70990;50.618;7.346;2023-10-08T00:08:54;7.30;;;1.90;;
81544;SDS011;70990;50.618;7.346;2023-10-08T00:11:20;6.72;;;1.77;;
81544;SDS011;70990;50.618;7.346;2023-10-08T00:13:47;7.57;;;1.80;;
81544;SDS011;70990;50.618;7.346;2023-10-08T00:16:13;6.32;;;2.00;;
81544;SDS011;70990;50.618;7.346;2023-10-08T00:18:40;6.32;;;2.10;;
81544;SDS011;70990;50.618;7.346;2023-10-08T00:21:07;7.80;;;2.55;;
81544;SDS011;70990;50.618;7.346;2023-10-08T00:23:33;5.50;;;1.88;;
81544;SDS011;70990;50.618;7.346;2023-10-08T00:26:00;6.88;;;2.05;;
81544;SDS011;70990;50.618;7.346;2023-10-08T00:28:27;6.22;;;1.85;;
81544;SDS011;70990;50.618;7.346;2023-10-08T00:30:54;5.65;;;1.70;;
81544;SDS011;70990;50.618;7.346;2023-10-08T00:33:20;7.15;;;2.10;;
81544;SDS011;70990;50.618;7.346;2023-10-08T00:35:47;6.15;;;2.42;;
81544;SDS011;70990;50.618;7.346;2023-10-08T00:38:14;7.47;;;2.20;;
81544;SDS011;70990;50.618;7.346;2023-10-08T00:40:41;8.85;;;2.20;;
81544;SDS011;70990;50.618;7.346;2023-10-08T00:43:08;7.32;;;1.98;;
81544;SDS011;70990;50.618;7.346;2023-10-08T00:45:35;9.57;;;2.50;;
81544;SDS011;70990;50.618;7.346;2023-10-08T00:48:03;7.35;;;2.10;;
81544;SDS011;70990;50.618;7.346;2023-10-08T00:50:31;7.57;;;2.00;;
81544;SDS011;70990;50.618;7.346;2023-10-08T00:52:57;6.85;;;2.08;;
81544;SDS011;70990;50.618;7.346;2023-10-08T00:55:25;8.13;;;1.95;;
81544;SDS011;70990;50.618;7.346;2023-10-08T00:57:52;7.07;;;2.25;;
81544;SDS011;70990;50.618;7.346;2023-10-08T01:00:23;6.40;;;1.92;;
81544;SDS011;70990;50.618;7.346;2023-10-08T01:02:49;7.45;;;1.70;;
81544;SDS011;70990;50.618;7.346;2023-10-08T01:05:16;6.93;;;2.00;;
81544;SDS011;70990;50.618;7.346;2023-10-08T01:07:43;9.48;;;2.50;;
81544;SDS011;70990;50.618;7.346;2023-10-08T01:10:11;6.40;;;2.30;;
81544;SDS011;70990;50.618;7.346;2023-10-08T01:12:38;7.65;;;2.17;;
81544;SDS011;70990;50.618;7.346;2023-10-08T01:15:05;7.10;;;2.13;;
81544;SDS011;70990;50.618;7.346;2023-10-08T01:17:32;6.28;;;2.25;;
81544;SDS011;70990;50.618;7.346;2023-10-08T01:19:58;6.38;;;2.00;;
81544;SDS011;70990;50.618;7.346;2023-10-08T01:22:25;9.15;;;2.38;;
81544;SDS011;70990;50.618;7.346;2023-10-08T01:24:52;5.35;;;1.50;;
81544;SDS011;70990;50.618;7.346;2023-10-08T01:27:18;6.60;;;2.00;;
81544;SDS011;70990;50.618;7.346;2023-10-08T01:29:45;13.68;;;2.58;;
81544;SDS011;70990;50.618;7.346;2023-10-08T01:32:12;8.38;;;2.60;;
81544;SDS011;70990;50.618;7.346;2023-10-08T01:34:38;5.93;;;1.70;;
81544;SDS011;70990;50.618;7.346;2023-10-08T01:37:05;6.93;;;1.85;;
81544;SDS011;70990;50.618;7.346;2023-10-08T01:39:32;7.65;;;2.35;;
81544;SDS011;70990;50.618;7.346;2023-10-08T01:41:58;7.53;;;2.28;;
81544;SDS011;70990;50.618;7.346;2023-10-08T01:44:25;12.05;;;2.58;;
81544;SDS011;70990;50.618;7.346;2023-10-08T01:46:51;7.88;;;2.20;;
81544;SDS011;70990;50.618;7.346;2023-10-08T01:49:18;6.88;;;2.00;;
81544;SDS011;70990;50.618;7.346;2023-10-08T01:51:45;5.85;;;1.95;;
81544;SDS011;70990;50.618;7.346;2023-10-08T01:54:11;5.50;;;1.67;;
81544;SDS011;70990;50.618;7.346;2023-10-08T01:56:39;7.93;;;2.10;;
81544;SDS011;70990;50.618;7.346;2023-10-08T01:59:12;6.85;;;2.22;;
81544;SDS011;70990;50.618;7.346;2023-10-08T02:01:41;7.22;;;2.20;;
81544;SDS011;70990;50.618;7.346;2023-10-08T02:04:09;6.13;;;1.77;;
81544;SDS011;70990;50.618;7.346;2023-10-08T02:06:36;6.68;;;2.30;;
81544;SDS011;70990;50.618;7.346;2023-10-08T02:09:03;7.45;;;2.40;;
81544;SDS011;70990;50.618;7.346;2023-10-08T02:11:30;7.25;;;1.73;;
81544;SDS011;70990;50.618;7.346;2023-10-08T02:13:56;10.05;;;1.98;;
81544;SDS011;70990;50.618;7.346;2023-10-08T02:16:23;6.53;;;2.08;;
81544;SDS011;70990;50.618;7.346;2023-10-08T02:18:49;7.32;;;2.05;;
81544;SDS011;70990;50.618;7.346;2023-10-08T02:21:17;8.27;;;2.17;;
81544;SDS011;70990;50.618;7.346;2023-10-08T02:23:43;6.30;;;1.85;;
81544;SDS011;70990;50.618;7.346;2023-10-08T02:26:10;7.32;;;1.90;;
81544;SDS011;70990;50.618;7.346;2023-10-08T02:28:37;8.93;;;2.17;;
81544;SDS011;70990;50.618;7.346;2023-10-08T02:31:03;7.10;;;1.80;;
81544;SDS011;70990;50.618;7.346;2023-10-08T02:33:30;7.35;;;2.00;;
81544;SDS011;70990;50.618;7.346;2023-10-08T02:35:57;8.88;;;2.70;;
81544;SDS011;70990;50.618;7.346;2023-10-08T02:38:24;5.90;;;2.05;;
81544;SDS011;70990;50.618;7.346;2023-10-08T02:40:50;9.90;;;2.10;;
81544;SDS011;70990;50.618;7.346;2023-10-08T02:43:17;6.22;;;2.40;;
81544;SDS011;70990;50.618;7.346;2023-10-08T02:45:45;7.90;;;2.17;;
81544;SDS011;70990;50.618;7.346;2023-10-08T02:48:11;6.65;;;2.22;;
81544;SDS011;70990;50.618;7.346;2023-10-08T02:50:39;6.82;;;1.98;;
81544;SDS011;70990;50.618;7.346;2023-10-08T02:53:07;9.45;;;2.03;;
81544;SDS011;70990;50.618;7.346;2023-10-08T02:55:34;8.85;;;2.20;;
81544;SDS011;70990;50.618;7.346;2023-10-08T02:58:01;6.18;;;1.77;;
81544;SDS011;70990;50.618;7.346;2023-10-08T03:00:30;5.25;;;1.98;;
81544;SDS011;70990;50.618;7.346;2023-10-08T03:02:57;6.53;;;2.10;;
81544;SDS011;70990;50.618;7.346;2023-10-08T03:05:24;5.80;;;2.13;;
81544;SDS011;70990;50.618;7.346;2023-10-08T03:07:51;10.10;;;2.80;;
81544;SDS011;70990;50.618;7.346;2023-10-08T03:10:18;8.68;;;1.95;;
81544;SDS011;70990;50.618;7.346;2023-10-08T03:12:45;8.60;;;2.13;;
81544;SDS011;70990;50.618;7.346;2023-10-08T03:15:12;6.25;;;1.92;;
81544;SDS011;70990;50.618;7.346;2023-10-08T03:17:41;8.38;;;2.10;;
81544;SDS011;70990;50.618;7.346;2023-10-08T03:20:08;6.75;;;1.83;;
81544;SDS011;70990;50.618;7.346;2023-10-08T03:22:36;6.80;;;2.42;;
81544;SDS011;70990;50.618;7.346;2023-10-08T03:25:03;6.35;;;1.90;;
81544;SDS011;70990;50.618;7.346;2023-10-08T03:27:30;8.25;;;1.92;;
81544;SDS011;70990;50.618;7.346;2023-10-08T03:29:56;8.90;;;2.08;;
81544;SDS011;70990;50.618;7.346;2023-10-08T03:32:23;7.38;;;2.25;;
81544;SDS011;70990;50.618;7.346;2023-10-08T03:34:50;6.57;;;2.40;;
81544;SDS011;70990;50.618;7.346;2023-10-08T03:37:17;7.72;;;1.70;;
81544;SDS011;70990;50.618;7.346;2023-10-08T03:39:45;6.88;;;1.98;;
81544;SDS011;70990;50.618;7.346;2023-10-08T03:42:13;6.30;;;2.20;;
81544;SDS011;70990;50.618;7.346;2023-10-08T03:44:40;6.72;;;1.85;;
81544;SDS011;70990;50.618;7.346;2023-10-08T03:47:06;7.70;;;2.22;;
81544;SDS011;70990;50.618;7.346;2023-10-08T03:49:33;7.43;;;1.90;;
81544;SDS011;70990;50.618;7.346;2023-10-08T03:51:59;7.82;;;2.58;;
81544;SDS011;70990;50.618;7.346;2023-10-08T03:54:26;6.00;;;1.85;;
81544;SDS011;70990;50.618;7.346;2023-10-08T03:56:52;7.07;;;2.08;;
81544;SDS011;70990;50.618;7.346;2023-10-08T03:59:19;7.70;;;2.35;;
81544;SDS011;70990;50.618;7.346;2023-10-08T04:01:46;7.68;;;2.50;;
81544;SDS011;70990;50.618;7.346;2023-10-08T04:04:13;10.45;;;2.42;;
81544;SDS011;70990;50.618;7.346;2023-10-08T04:06:42;10.70;;;2.45;;
81544;SDS011;70990;50.618;7.346;2023-10-08T04:09:10;9.02;;;2.15;;
81544;SDS011;70990;50.618;7.346;2023-10-08T04:11:37;8.65;;;2.40;;
81544;SDS011;70990;50.618;7.346;2023-10-08T04:14:05;8.77;;;3.00;;
81544;SDS011;70990;50.618;7.346;2023-10-08T04:16:32;12.57;;;2.45;;
81544;SDS011;70990;50.618;7.346;2023-10-08T04:18:59;6.90;;;2.53;;
81544;SDS011;70990;50.618;7.346;2023-10-08T04:21:25;9.55;;;2.25;;
81544;SDS011;70990;50.618;7.346;2023-10-08T04:23:52;8.18;;;3.22;;
81544;SDS011;70990;50.618;7.346;2023-10-08T04:26:20;10.23;;;2.38;;
81544;SDS011;70990;50.618;7.346;2023-10-08T04:28:46;10.27;;;2.72;;
81544;SDS011;70990;50.618;7.346;2023-10-08T04:31:13;7.05;;;2.10;;
81544;SDS011;70990;50.618;7.346;2023-10-08T04:33:41;9.63;;;2.50;;
81544;SDS011;70990;50.618;7.346;2023-10-08T04:36:08;7.90;;;2.50;;
81544;SDS011;70990;50.618;7.346;2023-10-08T04:38:35;8.77;;;2.60;;
81544;SDS011;70990;50.618;7.346;2023-10-08T04:41:02;7.22;;;2.05;;
81544;SDS011;70990;50.618;7.346;2023-10-08T04:43:29;7.60;;;2.05;;
81544;SDS011;70990;50.618;7.346;2023-10-08T04:45:56;7.65;;;1.83;;
81544;SDS011;70990;50.618;7.346;2023-10-08T04:48:24;7.95;;;2.28;;
81544;SDS011;70990;50.618;7.346;2023-10-08T04:50:51;7.97;;;2.70;;
81544;SDS011;70990;50.618;7.346;2023-10-08T04:53:18;10.73;;;3.25;;
81544;SDS011;70990;50.618;7.346;2023-10-08T04:55:45;7.70;;;2.13;;
81544;SDS011;70990;50.618;7.346;2023-10-08T04:58:11;7.90;;;2.33;;
81544;SDS011;70990;50.618;7.346;2023-10-08T05:00:37;8.30;;;2.22;;
81544;SDS011;70990;50.618;7.346;2023-10-08T05:03:04;8.20;;;2.33;;
81544;SDS011;70990;50.618;7.346;2023-10-08T05:05:31;9.88;;;2.45;;
81544;SDS011;70990;50.618;7.346;2023-10-08T05:07:57;8.43;;;2.65;;
81544;SDS011;70990;50.618;7.346;2023-10-08T05:10:24;9.50;;;2.47;;
81544;SDS011;70990;50.618;7.346;2023-10-08T05:12:53;10.30;;;2.25;;
81544;SDS011;70990;50.618;7.346;2023-10-08T05:15:21;7.90;;;2.20;;
81544;SDS011;70990;50.618;7.346;2023-10-08T05:17:48;9.02;;;2.20;;
81544;SDS011;70990;50.618;7.346;2023-10-08T05:20:15;9.15;;;2.15;;
81544;SDS011;70990;50.618;7.346;2023-10-08T05:22:46;7.68;;;2.53;;
81544;SDS011;70990;50.618;7.346;2023-10-08T05:25:13;6.97;;;2.28;;
81544;SDS011;70990;50.618;7.346;2023-10-08T05:27:40;10.20;;;3.40;;
81544;SDS011;70990;50.618;7.346;2023-10-08T05:30:08;9.80;;;3.60;;
81544;SDS011;70990;50.618;7.346;2023-10-08T05:32:35;9.75;;;3.25;;
81544;SDS011;70990;50.618;7.346;2023-10-08T05:35:01;10.35;;;3.75;;
81544;SDS011;70990;50.618;7.346;2023-10-08T05:37:28;7.45;;;2.30;;
81544;SDS011;70990;50.618;7.346;2023-10-08T05:39:54;8.30;;;2.92;;
81544;SDS011;70990;50.618;7.346;2023-10-08T05:42:21;8.07;;;2.20;;
81544;SDS011;70990;50.618;7.346;2023-10-08T05:44:48;8.75;;;2.65;;
81544;SDS011;70990;50.618;7.346;2023-10-08T05:47:15;13.60;;;5.63;;
81544;SDS011;70990;50.618;7.346;2023-10-08T05:49:41;35.28;;;17.17;;
81544;SDS011;70990;50.618;7.346;2023-10-08T05:52:08;19.55;;;8.27;;
81544;SDS011;70990;50.618;7.346;2023-10-08T05:54:35;10.40;;;3.47;;
81544;SDS011;70990;50.618;7.346;2023-10-08T05:57:02;15.40;;;3.80;;
81544;SDS011;70990;50.618;7.346;2023-10-08T05:59:29;13.90;;;3.42;;
81544;SDS011;70990;50.618;7.346;2023-10-08T06:01:57;8.65;;;2.83;;
81544;SDS011;70990;50.618;7.346;2023-10-08T06:04:24;11.80;;;2.60;;
81544;SDS011;70990;50.618;7.346;2023-10-08T06:06:50;8.23;;;2.58;;
81544;SDS011;70990;50.618;7.346;2023-10-08T06:09:17;9.13;;;2.67;;
81544;SDS011;70990;50.618;7.346;2023-10-08T06:11:44;8.00;;;2.25;;
81544;SDS011;70990;50.618;7.346;2023-10-08T06:14:11;6.20;;;2.40;;
81544;SDS011;70990;50.618;7.346;2023-10-08T06:16:38;7.45;;;2.55;;
81544;SDS011;70990;50.618;7.346;2023-10-08T06:19:04;7.20;;;2.28;;
81544;SDS011;70990;50.618;7.346;2023-10-08T06:21:31;14.00;;;3.50;;
81544;SDS011;70990;50.618;7.346;2023-10-08T06:23:58;9.60;;;2.58;;
81544;SDS011;70990;50.618;7.346;2023-10-08T06:26:24;8.65;;;2.30;;
81544;SDS011;70990;50.618;7.346;2023-10-08T06:28:52;7.57;;;2.40;;
81544;SDS011;70990;50.618;7.346;2023-10-08T06:31:18;11.32;;;2.30;;
81544;SDS011;70990;50.618;7.346;2023-10-08T06:33:46;9.15;;;2.40;;
81544;SDS011;70990;50.618;7.346;2023-10-08T06:36:13;9.60;;;2.35;;
81544;SDS011;70990;50.618;7.346;2023-10-08T06:38:40;6.82;;;2.65;;
81544;SDS011;70990;50.618;7.346;2023-10-08T06:41:12;8.45;;;2.30;;
81544;SDS011;70990;50.618;7.346;2023-10-08T06:43:48;8.32;;;2.22;;
81544;SDS011;70990;50.618;7.346;2023-10-08T06:46:16;11.32;;;3.05;;
81544;SDS011;70990;50.618;7.346;2023-10-08T06:48:45;7.32;;;2.50;;
81544;SDS011;70990;50.618;7.346;2023-10-08T06:51:12;8.30;;;2.90;;
81544;SDS011;70990;50.618;7.346;2023-10-08T06:53:46;9.52;;;2.13;;
81544;SDS011;70990;50.618;7.346;2023-10-08T06:56:20;8.52;;;2.40;;
81544;SDS011;70990;50.618;7.346;2023-10-08T06:58:54;8.13;;;2.53;;
81544;SDS011;70990;50.618;7.346;2023-10-08T07:01:20;7.35;;;2.35;;
81544;SDS011;70990;50.618;7.346;2023-10-08T07:03:54;10.32;;;2.60;;
81544;SDS011;70990;50.618;7.346;2023-10-08T07:06:34;9.32;;;2.78;;
81544;SDS011;70990;50.618;7.346;2023-10-08T07:09:01;9.70;;;3.35;;
81544;SDS011;70990;50.618;7.346;2023-10-08T07:11:28;11.15;;;3.20;;
81544;SDS011;70990;50.618;7.346;2023-10-08T07:13:54;15.80;;;3.67;;
81544;SDS011;70990;50.618;7.346;2023-10-08T07:16:21;10.55;;;3.17;;
81544;SDS011;70990;50.618;7.346;2023-10-08T07:18:48;10.02;;;3.17;;
81544;SDS011;70990;50.618;7.346;2023-10-08T07:21:14;10.02;;;3.30;;
81544;SDS011;70990;50.618;7.346;2023-10-08T07:23:41;7.75;;;2.42;;
81544;SDS011;70990;50.618;7.346;2023-10-08T07:26:08;7.32;;;2.38;;
81544;SDS011;70990;50.618;7.346;2023-10-08T07:28:34;10.38;;;2.85;;
81544;SDS011;70990;50.618;7.346;2023-10-08T07:31:00;8.18;;;2.28;;
81544;SDS011;70990;50.618;7.346;2023-10-08T07:33:27;9.98;;;2.65;;
81544;SDS011;70990;50.618;7.346;2023-10-08T07:35:54;6.75;;;2.55;;
81544;SDS011;70990;50.618;7.346;2023-10-08T07:38:20;10.93;;;2.63;;
81544;SDS011;70990;50.618;7.346;2023-10-08T07:40:47;8.02;;;2.67;;
81544;SDS011;70990;50.618;7.346;2023-10-08T07:43:14;7.10;;;3.05;;
81544;SDS011;70990;50.618;7.346;2023-10-08T07:45:41;7.38;;;2.25;;
81544;SDS011;70990;50.618;7.346;2023-10-08T07:48:07;7.57;;;2.38;;
81544;SDS011;70990;50.618;7.346;2023-10-08T07:50:34;8.00;;;2.38;;
81544;SDS011;70990;50.618;7.346;2023-10-08T07:53:00;8.55;;;2.50;;
81544;SDS011;70990;50.618;7.346;2023-10-08T07:55:27;8.63;;;2.65;;
81544;SDS011;70990;50.618;7.346;2023-10-08T07:57:53;7.38;;;2.45;;
81544;SDS011;70990;50.618;7.346;2023-10-08T08:00:20;12.75;;;2.70;;
81544;SDS011;70990;50.618;7.346;2023-10-08T08:02:47;10.48;;;2.58;;
81544;SDS011;70990;50.618;7.346;2023-10-08T08:05:13;10.77;;;3.22;;
81544;SDS011;70990;50.618;7.346;2023-10-08T08:07:40;9.63;;;2.83;;
81544;SDS011;70990;50.618;7.346;2023-10-08T08:10:07;8.82;;;2.60;;
81544;SDS011;70990;50.618;7.346;2023-10-08T08:12:34;8.55;;;3.20;;
81544;SDS011;70990;50.618;7.346;2023-10-08T08:15:00;10.13;;;3.15;;
81544;SDS011;70990;50.618;7.346;2023-10-08T08:17:27;15.88;;;3.30;;
81544;SDS011;70990;50.618;7.346;2023-10-08T08:19:53;8.10;;;2.60;;
81544;SDS011;70990;50.618;7.346;2023-10-08T08:22:21;10.73;;;2.58;;
81544;SDS011;70990;50.618;7.346;2023-10-08T08:24:50;11.48;;;2.97;;
81544;SDS011;70990;50.618;7.346;2023-10-08T08:27:17;9.32;;;2.92;;
81544;SDS011;70990;50.618;7.346;2023-10-08T08:29:43;9.93;;;2.97;;
81544;SDS011;70990;50.618;7.346;2023-10-08T08:32:10;11.10;;;2.53;;
81544;SDS011;70990;50.618;7.346;2023-10-08T08:34:37;7.57;;;2.33;;
81544;SDS011;70990;50.618;7.346;2023-10-08T08:37:04;7.75;;;2.90;;
81544;SDS011;70990;50.618;7.346;2023-10-08T08:39:30;10.38;;;2.85;;
81544;SDS011;70990;50.618;7.346;2023-10-08T08:42:00;11.02;;;2.92;;
81544;SDS011;70990;50.618;7.346;2023-10-08T08:44:28;8.20;;;2.80;;
81544;SDS011;70990;50.618;7.346;2023-10-08T08:46:55;9.75;;;2.92;;
81544;SDS011;70990;50.618;7.346;2023-10-08T08:49:24;8.65;;;2.67;;
81544;SDS011;70990;50.618;7.346;2023-10-08T08:51:52;10.70;;;2.90;;
81544;SDS011;70990;50.618;7.346;2023-10-08T08:54:19;8.07;;;2.65;;
81544;SDS011;70990;50.618;7.346;2023-10-08T08:56:47;9.60;;;3.20;;
81544;SDS011;70990;50.618;7.346;2023-10-08T08:59:14;10.70;;;3.05;;
81544;SDS011;70990;50.618;7.346;2023-10-08T09:01:42;8.98;;;2.90;;
81544;SDS011;70990;50.618;7.346;2023-10-08T09:04:09;8.77;;;2.78;;
81544;SDS011;70990;50.618;7.346;2023-10-08T09:06:37;10.13;;;2.70;;
81544;SDS011;70990;50.618;7.346;2023-10-08T09:09:05;8.55;;;2.83;;
81544;SDS011;70990;50.618;7.346;2023-10-08T09:11:33;8.70;;;3.15;;
81544;SDS011;70990;50.618;7.346;2023-10-08T09:14:07;8.18;;;2.88;;
81544;SDS011;70990;50.618;7.346;2023-10-08T09:16:34;11.13;;;3.47;;
81544;SDS011;70990;50.618;7.346;2023-10-08T09:19:01;11.15;;;3.95;;
81544;SDS011;70990;50.618;7.346;2023-10-08T09:21:28;11.43;;;3.72;;
81544;SDS011;70990;50.618;7.346;2023-10-08T09:23:54;12.85;;;3.30;;
81544;SDS011;70990;50.618;7.346;2023-10-08T09:26:24;12.60;;;2.92;;
81544;SDS011;70990;50.618;7.346;2023-10-08T09:28:52;11.90;;;3.10;;
81544;SDS011;70990;50.618;7.346;2023-10-08T09:31:19;9.43;;;3.20;;
81544;SDS011;70990;50.618;7.346;2023-10-08T09:33:53;9.15;;;3.03;;
81544;SDS011;70990;50.618;7.346;2023-10-08T09:36:21;7.10;;;2.60;;
81544;SDS011;70990;50.618;7.346;2023-10-08T09:38:48;8.38;;;2.70;;
81544;SDS011;70990;50.618;7.346;2023-10-08T09:41:16;10.23;;;3.00;;
81544;SDS011;70990;50.618;7.346;2023-10-08T09:43:45;11.82;;;3.65;;
81544;SDS011;70990;50.618;7.346;2023-10-08T09:46:15;9.02;;;3.65;;
81544;SDS011;70990;50.618;7.346;2023-10-08T09:48:53;9.63;;;3.20;;
81544;SDS011;70990;50.618;7.346;2023-10-08T09:51:27;11.88;;;3.58;;
81544;SDS011;70990;50.618;7.346;2023-10-08T09:54:11;11.23;;;3.83;;
81544;SDS011;70990;50.618;7.346;2023-10-08T09:56:44;10.30;;;3.38;;
81544;SDS011;70990;50.618;7.346;2023-10-08T09:59:10;9.52;;;3.40;;
81544;SDS011;70990;50.618;7.346;2023-10-08T10:01:40;9.23;;;2.75;;
81544;SDS011;70990;50.618;7.346;2023-10-08T10:04:09;10.40;;;2.92;;
81544;SDS011;70990;50.618;7.346;2023-10-08T10:06:37;11.13;;;3.67;;
81544;SDS011;70990;50.618;7.346;2023-10-08T10:09:04;11.10;;;3.45;;
81544;SDS011;70990;50.618;7.346;2023-10-08T10:11:31;9.48;;;3.60;;
81544;SDS011;70990;50.618;7.346;2023-10-08T10:13:59;7.22;;;2.88;;
81544;SDS011;70990;50.618;7.346;2023-10-08T10:16:26;11.90;;;3.25;;
81544;SDS011;70990;50.618;7.346;2023-10-08T10:19:00;9.07;;;3.10;;
81544;SDS011;70990;50.618;7.346;2023-10-08T10:21:29;9.65;;;3.47;;
81544;SDS011;70990;50.618;7.346;2023-10-08T10:23:57;12.10;;;3.35;;
81544;SDS011;70990;50.618;7.346;2023-10-08T10:26:28;11.98;;;3.30;;
81544;SDS011;70990;50.618;7.346;2023-10-08T10:31:35;12.65;;;3.63;;
81544;SDS011;70990;50.618;7.346;2023-10-08T10:34:06;8.90;;;3.25;;
81544;SDS011;70990;50.618;7.346;2023-10-08T10:36:33;16.35;;;3.72;;
81544;SDS011;70990;50.618;7.346;2023-10-08T10:39:00;12.77;;;4.07;;
81544;SDS011;70990;50.618;7.346;2023-10-08T10:41:27;10.45;;;3.42;;
81544;SDS011;70990;50.618;7.346;2023-10-08T10:43:54;11.52;;;3.55;;
81544;SDS011;70990;50.618;7.346;2023-10-08T10:46:20;13.65;;;3.22;;
81544;SDS011;70990;50.618;7.346;2023-10-08T10:48:47;15.35;;;4.72;;
81544;SDS011;70990;50.618;7.346;2023-10-08T10:51:14;11.35;;;3.88;;
81544;SDS011;70990;50.618;7.346;2023-10-08T10:53:40;12.40;;;3.60;;
81544;SDS011;70990;50.618;7.346;2023-10-08T10:56:07;13.52;;;4.32;;
81544;SDS011;70990;50.618;7.346;2023-10-08T10:58:33;13.32;;;4.05;;
81544;SDS011;70990;50.618;7.346;2023-10-08T11:01:00;13.07;;;3.72;;
81544;SDS011;70990;50.618;7.346;2023-10-08T11:03:26;10.05;;;3.90;;
81544;SDS011;70990;50.618;7.346;2023-10-08T11:05:56;10.35;;;3.33;;
81544;SDS011;70990;50.618;7.346;2023-10-08T11:08:24;13.40;;;4.25;;
81544;SDS011;70990;50.618;7.346;2023-10-08T11:10:52;8.18;;;4.15;;
81544;SDS011;70990;50.618;7.346;2023-10-08T11:13:20;18.50;;;3.97;;
81544;SDS011;70990;50.618;7.346;2023-10-08T11:15:49;10.45;;;3.85;;
81544;SDS011;70990;50.618;7.346;2023-10-08T11:18:19;10.90;;;3.35;;
81544;SDS011;70990;50.618;7.346;2023-10-08T11:23:32;10.73;;;3.40;;
81544;SDS011;70990;50.618;7.346;2023-10-08T11:26:00;13.98;;;4.40;;
81544;SDS011;70990;50.618;7.346;2023-10-08T11:28:28;11.15;;;4.07;;
81544;SDS011;70990;50.618;7.346;2023-10-08T11:31:04;12.40;;;4.93;;
81544;SDS011;70990;50.618;7.346;2023-10-08T11:33:31;12.63;;;3.67;;
81544;SDS011;70990;50.618;7.346;2023-10-08T11:36:03;12.80;;;4.43;;
81544;SDS011;70990;50.618;7.346;2023-10-08T11:38:40;14.02;;;4.95;;
81544;SDS011;70990;50.618;7.346;2023-10-08T11:41:13;13.18;;;4.70;;
81544;SDS011;70990;50.618;7.346;2023-10-08T11:43:41;14.45;;;3.95;;
81544;SDS011;70990;50.618;7.346;2023-10-08T11:46:08;11.98;;;3.88;;
81544;SDS011;70990;50.618;7.346;2023-10-08T11:48:34;12.00;;;4.45;;
81544;SDS011;70990;50.618;7.346;2023-10-08T11:51:01;14.93;;;4.20;;
81544;SDS011;70990;50.618;7.346;2023-10-08T11:53:29;11.38;;;4.13;;
81544;SDS011;70990;50.618;7.346;2023-10-08T11:55:56;11.02;;;4.38;;
81544;SDS011;70990;50.618;7.346;2023-10-08T11:58:23;14.77;;;4.22;;
81544;SDS011;70990;50.618;7.346;2023-10-08T12:00:49;8.15;;;3.42;;
81544;SDS011;70990;50.618;7.346;2023-10-08T12:03:16;18.63;;;3.95;;
81544;SDS011;70990;50.618;7.346;2023-10-08T12:05:44;16.08;;;5.00;;
81544;SDS011;70990;50.618;7.346;2023-10-08T12:08:11;13.50;;;4.35;;
81544;SDS011;70990;50.618;7.346;2023-10-08T12:10:38;12.30;;;3.95;;
81544;SDS011;70990;50.618;7.346;2023-10-08T12:13:04;14.52;;;4.20;;
81544;SDS011;70990;50.618;7.346;2023-10-08T12:15:31;15.20;;;4.22;;
81544;SDS011;70990;50.618;7.346;2023-10-08T12:17:57;10.68;;;3.70;;
81544;SDS011;70990;50.618;7.346;2023-10-08T12:20:24;10.52;;;4.22;;
81544;SDS011;70990;50.618;7.346;2023-10-08T12:22:50;12.45;;;4.35;;
81544;SDS011;70990;50.618;7.346;2023-10-08T12:25:18;12.38;;;3.80;;
81544;SDS011;70990;50.618;7.346;2023-10-08T12:27:44;14.13;;;4.97;;
81544;SDS011;70990;50.618;7.346;2023-10-08T12:30:11;10.30;;;4.28;;
81544;SDS011;70990;50.618;7.346;2023-10-08T12:32:38;12.20;;;4.38;;
81544;SDS011;70990;50.618;7.346;2023-10-08T12:35:04;11.75;;;4.28;;
81544;SDS011;70990;50.618;7.346;2023-10-08T12:37:31;11.77;;;4.22;;
81544;SDS011;70990;50.618;7.346;2023-10-08T12:39:58;14.10;;;3.92;;
81544;SDS011;70990;50.618;7.346;2023-10-08T12:42:25;9.90;;;3.42;;
81544;SDS011;70990;50.618;7.346;2023-10-08T12:44:52;11.07;;;3.83;;
81544;SDS011;70990;50.618;7.346;2023-10-08T12:47:18;12.45;;;3.65;;
81544;SDS011;70990;50.618;7.346;2023-10-08T12:49:45;15.75;;;4.85;;
81544;SDS011;70990;50.618;7.346;2023-10-08T12:52:12;15.05;;;4.80;;
81544;SDS011;70990;50.618;7.346;2023-10-08T12:54:39;15.73;;;4.75;;
81544;SDS011;70990;50.618;7.346;2023-10-08T12:57:06;14.27;;;4.22;;
81544;SDS011;70990;50.618;7.346;2023-10-08T12:59:32;14.50;;;5.05;;
81544;SDS011;70990;50.618;7.346;2023-10-08T13:01:59;14.13;;;5.10;;
81544;SDS011;70990;50.618;7.346;2023-10-08T13:04:26;18.90;;;5.63;;
81544;SDS011;70990;50.618;7.346;2023-10-08T13:06:56;15.43;;;4.70;;
81544;SDS011;70990;50.618;7.346;2023-10-08T13:09:24;13.68;;;4.82;;
81544;SDS011;70990;50.618;7.346;2023-10-08T13:11:51;15.82;;;5.20;;
81544;SDS011;70990;50.618;7.346;2023-10-08T13:14:18;14.27;;;4.88;;
81544;SDS011;70990;50.618;7.346;2023-10-08T13:16:45;16.48;;;4.85;;
81544;SDS011;70990;50.618;7.346;2023-10-08T13:19:12;16.35;;;5.22;;
81544;SDS011;70990;50.618;7.346;2023-10-08T13:21:39;14.05;;;5.53;;
81544;SDS011;70990;50.618;7.346;2023-10-08T13:24:05;14.07;;;4.63;;
81544;SDS011;70990;50.618;7.346;2023-10-08T13:26:32;15.02;;;4.63;;
81544;SDS011;70990;50.618;7.346;2023-10-08T13:28:59;17.73;;;5.80;;
81544;SDS011;70990;50.618;7.346;2023-10-08T13:31:27;12.77;;;4.72;;
81544;SDS011;70990;50.618;7.346;2023-10-08T13:33:54;13.25;;;4.90;;
81544;SDS011;70990;50.618;7.346;2023-10-08T13:36:20;13.95;;;5.05;;
81544;SDS011;70990;50.618;7.346;2023-10-08T13:38:47;16.52;;;5.32;;
81544;SDS011;70990;50.618;7.346;2023-10-08T13:41:14;15.75;;;5.55;;
81544;SDS011;70990;50.618;7.346;2023-10-08T13:46:20;15.15;;;5.95;;
81544;SDS011;70990;50.618;7.346;2023-10-08T13:48:47;18.92;;;6.35;;
81544;SDS011;70990;50.618;7.346;2023-10-08T13:51:14;13.68;;;5.32;;
81544;SDS011;70990;50.618;7.346;2023-10-08T13:53:47;24.52;;;6.53;;
81544;SDS011;70990;50.618;7.346;2023-10-08T13:56:14;14.18;;;5.95;;
81544;SDS011;70990;50.618;7.346;2023-10-08T13:58:41;14.77;;;5.38;;
81544;SDS011;70990;50.618;7.346;2023-10-08T14:01:08;14.18;;;5.75;;
81544;SDS011;70990;50.618;7.346;2023-10-08T14:03:35;16.45;;;6.22;;
81544;SDS011;70990;50.618;7.346;2023-10-08T14:06:02;14.20;;;5.00;;
81544;SDS011;70990;50.618;7.346;2023-10-08T14:08:29;15.48;;;4.90;;
81544;SDS011;70990;50.618;7.346;2023-10-08T14:10:57;15.82;;;5.95;;
81544;SDS011;70990;50.618;7.346;2023-10-08T14:13:24;17.35;;;5.38;;
81544;SDS011;70990;50.618;7.346;2023-10-08T14:15:50;13.13;;;5.13;;
81544;SDS011;70990;50.618;7.346;2023-10-08T14:18:17;12.80;;;5.03;;
81544;SDS011;70990;50.618;7.346;2023-10-08T14:20:44;11.75;;;4.82;;
81544;SDS011;70990;50.618;7.346;2023-10-08T14:23:11;12.68;;;4.75;;
81544;SDS011;70990;50.618;7.346;2023-10-08T14:25:38;19.10;;;6.50;;
81544;SDS011;70990;50.618;7.346;2023-10-08T14:28:05;16.27;;;5.80;;
81544;SDS011;70990;50.618;7.346;2023-10-08T14:30:31;12.68;;;4.95;;
81544;SDS011;70990;50.618;7.346;2023-10-08T14:32:58;14.20;;;4.80;;
81544;SDS011;70990;50.618;7.346;2023-10-08T14:35:25;19.25;;;6.00;;
81544;SDS011;70990;50.618;7.346;2023-10-08T14:37:52;17.20;;;5.05;;
81544;SDS011;70990;50.618;7.346;2023-10-08T14:40:18;13.52;;;4.70;;
81544;SDS011;70990;50.618;7.346;2023-10-08T14:42:45;16.63;;;5.50;;
81544;SDS011;70990;50.618;7.346;2023-10-08T14:45:11;13.07;;;5.10;;
81544;SDS011;70990;50.618;7.346;2023-10-08T14:47:38;10.70;;;4.85;;
81544;SDS011;70990;50.618;7.346;2023-10-08T14:50:05;12.85;;;5.40;;